Time;durP1;ratioP1;P1;durP2;ratioP2;P2;SDS_P1;SDS_P2;PMS_P1;PMS_P2;Temp;Humidity;BMP_temperature;BMP_pressure;BME280_temperature;BME280_humidity;BME280_pressure;Samples;Min_cycle;Max_cycle;Signal;HPM_P1;HPM_P2
2022/08/14 08:50:19;;;;;;;;;8.00;8.00;;;;;26.85;37.70;100414.00;2536561;23;45862;-81
2022/08/14 08:51:37;;;;;;;;;10.50;8.00;;;;;26.87;38.71;100411.16;2383390;28;45448;-82
2022/08/14 08:52:53;;;;;;;;;6.75;6.25;;;;;26.92;37.59;100411.47;2387441;28;45524;-82
2022/08/14 08:54:06;;;;;;;;;7.00;7.00;;;;;26.95;37.20;100414.69;2389590;28;45673;-81
2022/08/14 08:55:24;;;;;;;;;7.25;7.25;;;;;27.00;37.28;100418.72;2373172;28;46294;-81
2022/08/14 08:56:41;;;;;;;;;4.50;4.25;;;;;27.05;38.67;100419.06;2376225;28;44805;-81
2022/08/14 08:58:03;;;;;;;;;5.25;5.00;;;;;27.07;39.18;100427.84;2383950;28;45396;-81
2022/08/14 08:59:21;;;;;;;;;6.50;6.50;;;;;27.09;37.96;100425.81;2373549;28;45595;-81
2022/08/14 09:00:33;;;;;;;;;7.50;7.00;;;;;27.13;38.58;100423.66;2376576;28;46441;-81
2022/08/14 09:02:06;;;;;;;;;6.50;6.50;;;;;27.15;38.28;100418.94;2383329;28;44654;-81
2022/08/14 09:03:20;;;;;;;;;6.25;6.25;;;;;27.21;37.94;100428.22;2382041;28;45571;-81
2022/08/14 09:04:43;;;;;;;;;9.00;7.75;;;;;27.26;38.14;100418.59;2376728;28;45509;-82
2022/08/14 09:06:01;;;;;;;;;7.00;6.00;;;;;27.32;38.54;100421.63;2372659;28;47344;-81
2022/08/14 09:07:13;;;;;;;;;10.75;6.50;;;;;27.37;38.03;100425.50;2375681;28;45505;-81
2022/08/14 09:08:32;;;;;;;;;3.25;3.25;;;;;27.43;38.23;100426.69;2383540;28;46484;-81
2022/08/14 09:09:51;;;;;;;;;7.25;5.25;;;;;27.47;37.73;100416.38;2392413;28;45294;-81
2022/08/14 09:11:05;;;;;;;;;6.50;5.00;;;;;27.55;38.41;100419.06;2392356;28;47185;-81
2022/08/14 09:12:17;;;;;;;;;6.25;6.25;;;;;27.61;37.70;100420.22;2382509;28;45433;-82
2022/08/14 09:13:28;;;;;;;;;5.00;5.00;;;;;27.62;37.87;100414.69;2384959;28;46505;-81
2022/08/14 09:14:40;;;;;;;;;7.50;6.00;;;;;27.66;37.78;100411.63;2391633;28;45188;-82
2022/08/14 09:15:52;;;;;;;;;6.25;6.25;;;;;27.66;37.79;100412.47;2383009;28;47473;-82
2022/08/14 09:17:02;;;;;;;;;5.50;4.75;;;;;27.68;37.58;100412.31;2385035;28;45187;-82
2022/08/14 09:18:14;;;;;;;;;7.25;5.75;;;;;27.74;37.42;100415.16;2391521;28;45278;-82
2022/08/14 09:19:26;;;;;;;;;5.00;5.00;;;;;27.77;37.56;100415.81;2383105;28;45455;-82
2022/08/14 09:20:41;;;;;;;;;5.00;5.00;;;;;27.80;37.52;100418.22;2388942;28;45673;-82
2022/08/14 09:21:53;;;;;;;;;8.00;6.25;;;;;27.82;37.32;100411.63;2391487;28;44634;-82
2022/08/14 09:23:04;;;;;;;;;6.00;6.00;;;;;27.85;37.48;100413.13;2382023;28;46949;-82
2022/08/14 09:24:14;;;;;;;;;4.00;4.00;;;;;27.91;37.43;100411.56;2385882;28;44620;-82
2022/08/14 09:25:25;;;;;;;;;8.25;6.25;;;;;27.92;36.93;100419.53;2391903;28;46293;-82
2022/08/14 09:26:36;;;;;;;;;8.00;6.00;;;;;27.97;37.15;100427.09;2393390;28;45407;-83
2022/08/14 09:27:46;;;;;;;;;5.50;5.25;;;;;27.97;37.19;100427.94;2391814;28;47155;-82
2022/08/14 09:28:57;;;;;;;;;6.25;6.25;;;;;28.03;37.19;100422.84;2381897;28;45175;-83
2022/08/14 09:30:08;;;;;;;;;6.25;6.25;;;;;28.05;37.04;100418.94;2376803;28;46981;-85
2022/08/14 09:31:20;;;;;;;;;8.00;6.75;;;;;28.08;37.00;100421.31;2379084;28;45664;-84
2022/08/14 09:32:41;;;;;;;;;7.00;6.75;;;;;28.12;37.40;100429.06;2374817;28;47140;-84
2022/08/14 09:34:04;;;;;;;;;5.25;5.25;;;;;28.15;36.79;100426.84;2382565;28;44767;-84
2022/08/14 09:35:23;;;;;;;;;8.00;6.00;;;;;28.17;36.88;100419.44;2386332;28;47891;-84
2022/08/14 09:36:47;;;;;;;;;9.25;8.00;;;;;28.19;36.73;100425.50;2396314;28;44616;-85
2022/08/14 09:38:15;;;;;;;;;8.25;5.50;;;;;28.22;36.53;100424.31;2374338;28;47190;-84
2022/08/14 09:39:51;;;;;;;;;7.00;7.00;;;;;28.25;36.48;100423.94;2385435;28;45305;-84
2022/08/14 09:41:30;;;;;;;;;8.75;6.00;;;;;28.23;36.56;100412.47;2382573;28;47264;-84
2022/08/14 09:42:59;;;;;;;;;11.75;7.00;;;;;28.26;36.35;100424.78;2379497;28;45271;-85
2022/08/14 09:44:32;;;;;;;;;8.50;6.00;;;;;28.28;36.56;100426.28;2376558;28;45702;-84
2022/08/14 09:45:47;;;;;;;;;6.25;6.00;;;;;28.28;36.26;100415.47;2392980;28;45617;-86
2022/08/14 09:46:57;;;;;;;;;6.25;6.00;;;;;28.30;35.87;100412.59;2383844;28;48322;-90
2022/08/14 09:48:22;;;;;;;;;6.50;5.00;;;;;28.31;36.04;100412.44;2386192;28;44913;-91
2022/08/14 09:49:35;;;;;;;;;6.25;6.25;;;;;28.34;36.17;100407.69;2388392;28;47608;-95
2022/08/14 09:50:51;;;;;;;;;7.75;6.25;;;;;28.37;36.11;100410.88;2381431;28;45989;-90
2022/08/14 09:52:04;;;;;;;;;7.00;5.50;;;;;28.38;35.92;100414.41;2384484;28;48010;-88
2022/08/14 09:53:43;;;;;;;;;5.00;5.00;;;;;28.38;36.17;100407.16;2384561;28;45510;-87
2022/08/14 09:54:53;;;;;;;;;9.25;8.00;;;;;28.39;36.19;100413.41;2388416;28;46158;-87
2022/08/14 09:56:04;;;;;;;;;9.00;7.25;;;;;28.40;35.85;100402.41;2393666;28;45547;-86
2022/08/14 09:57:26;;;;;;;;;7.25;7.25;;;;;28.42;35.77;100397.66;2382402;28;47832;-82
2022/08/14 09:58:42;;;;;;;;;6.00;6.00;;;;;28.46;35.41;100395.50;2384824;28;45577;-87
2022/08/14 09:59:53;;;;;;;;;4.00;4.00;;;;;28.47;36.23;100394.44;2390516;28;47349;-88
2022/08/14 10:01:08;;;;;;;;;7.00;7.00;;;;;28.51;35.98;100398.50;2382064;28;44990;-84
2022/08/14 10:02:24;;;;;;;;;8.00;6.75;;;;;28.55;35.72;100400.84;2384219;28;47049;-87
2022/08/14 10:03:36;;;;;;;;;6.75;6.00;;;;;28.57;35.11;100406.91;2384324;28;45460;-83
2022/08/14 10:04:58;;;;;;;;;6.00;6.00;;;;;28.57;35.12;100401.50;2388304;28;45482;-82
2022/08/14 10:06:16;;;;;;;;;5.25;5.25;;;;;28.61;35.04;100392.03;2382122;28;45494;-84
2022/08/14 10:07:34;;;;;;;;;6.75;5.75;;;;;28.63;35.38;100392.69;2373310;28;47697;-84
2022/08/14 10:09:17;;;;;;;;;1.00;1.00;;;;;28.66;35.15;100397.72;2384940;28;45430;-85
2022/08/14 10:10:35;;;;;;;;;9.00;6.00;;;;;28.73;34.97;100409.50;2363333;28;47595;-85
2022/08/14 10:11:58;;;;;;;;;9.00;7.00;;;;;28.76;35.06;100406.44;2375990;28;45339;-82
2022/08/14 10:13:23;;;;;;;;;6.25;6.00;;;;;28.80;34.98;100398.81;2387594;28;46556;-82
2022/08/14 10:14:34;;;;;;;;;7.75;7.00;;;;;28.82;35.23;100401.31;2393892;28;45459;-83
2022/08/14 10:15:45;;;;;;;;;7.00;5.00;;;;;28.82;34.85;100395.91;2393675;28;45384;-82
2022/08/14 10:16:57;;;;;;;;;7.50;7.00;;;;;28.84;34.91;100404.72;2390628;28;45512;-81
2022/08/14 10:18:20;;;;;;;;;9.25;7.25;;;;;28.87;34.97;100405.19;2391932;28;45485;-80
2022/08/14 10:19:30;;;;;;;;;6.00;6.00;;;;;28.88;35.21;100400.59;2394178;28;45328;-80
2022/08/14 10:20:50;;;;;;;;;7.25;6.00;;;;;28.89;34.95;100413.13;2392574;28;45505;-81
2022/08/14 10:22:06;;;;;;;;;4.50;3.25;;;;;28.92;34.82;100418.16;2389480;28;45423;-81
2022/08/14 10:23:19;;;;;;;;;5.00;4.75;;;;;28.93;34.67;100422.56;2380259;28;47331;-80
2022/08/14 10:24:38;;;;;;;;;5.75;5.75;;;;;28.94;34.56;100409.88;2375368;28;45649;-80
2022/08/14 10:25:52;;;;;;;;;5.50;5.50;;;;;28.98;34.69;100417.44;2386260;28;46392;-80
2022/08/14 10:27:02;;;;;;;;;8.00;7.00;;;;;29.01;34.41;100420.81;2393051;28;45535;-80
2022/08/14 10:28:14;;;;;;;;;7.00;7.00;;;;;29.01;34.45;100415.38;2383116;28;47158;-82
2022/08/14 10:29:37;;;;;;;;;6.75;5.50;;;;;29.04;34.77;100418.56;2377095;28;45538;-83
2022/08/14 10:30:52;;;;;;;;;7.00;7.00;;;;;29.03;34.82;100424.16;2383779;28;45410;-86
2022/08/14 10:32:04;;;;;;;;;5.75;4.50;;;;;29.05;34.63;100422.09;2392653;28;45527;-87
2022/08/14 10:33:29;;;;;;;;;7.75;6.75;;;;;29.06;34.56;100423.81;2389989;28;47403;-85
2022/08/14 10:34:40;;;;;;;;;8.50;7.00;;;;;29.06;34.57;100415.69;2389669;28;45488;-84
2022/08/14 10:35:50;;;;;;;;;5.25;5.25;;;;;29.07;34.62;100417.34;2390494;28;46207;-86
2022/08/14 10:37:06;;;;;;;;;3.75;3.75;;;;;29.09;34.51;100423.44;2393871;28;45452;-86
2022/08/14 10:38:32;;;;;;;;;6.00;6.00;;;;;29.13;34.70;100429.34;2393139;28;46249;-86
2022/08/14 10:39:56;;;;;;;;;6.25;5.75;;;;;29.15;34.59;100432.72;2382420;28;45507;-82
2022/08/14 10:41:15;;;;;;;;;8.75;6.50;;;;;29.16;34.17;100432.56;2386357;28;46636;-82
2022/08/14 10:42:35;;;;;;;;;8.25;6.50;;;;;29.17;34.39;100431.50;2392062;28;45271;-82
2022/08/14 10:44:06;;;;;;;;;4.25;4.25;;;;;29.19;33.91;100432.16;2391472;28;48339;-82
2022/08/14 10:45:23;;;;;;;;;9.00;7.00;;;;;29.21;34.49;100432.00;2386347;28;45473;-84
2022/08/14 10:46:51;;;;;;;;;6.25;5.00;;;;;29.24;34.46;100430.78;2390011;28;47582;-83
2022/08/14 10:48:13;;;;;;;;;5.75;5.00;;;;;29.26;34.77;100426.84;2373110;28;47306;-83
2022/08/14 10:49:25;;;;;;;;;6.25;5.50;;;;;29.28;34.75;100432.09;2383683;28;45515;-83
2022/08/14 10:50:40;;;;;;;;;6.00;6.00;;;;;29.31;34.52;100424.44;2393265;28;45780;-83
2022/08/14 10:52:05;;;;;;;;;5.00;5.00;;;;;29.32;34.18;100423.44;2393275;28;45431;-82
2022/08/14 10:53:25;;;;;;;;;7.50;6.50;;;;;29.35;34.40;100432.22;2393506;28;45414;-81
2022/08/14 10:54:47;;;;;;;;;6.50;5.00;;;;;29.36;34.77;100429.31;2382720;28;47186;-81
2022/08/14 10:56:00;;;;;;;;;5.50;5.50;;;;;29.37;34.46;100424.75;2377927;28;44760;-81
2022/08/14 10:57:23;;;;;;;;;3.75;3.75;;;;;29.39;33.85;100428.09;2377186;28;48535;-82
2022/08/14 10:58:34;;;;;;;;;6.75;6.75;;;;;29.38;34.12;100427.28;2387275;28;44832;-82
2022/08/14 11:00:12;;;;;;;;;7.50;7.50;;;;;29.38;33.88;100427.28;2392910;28;47119;-81
2022/08/14 11:01:30;;;;;;;;;6.00;6.00;;;;;29.37;34.53;100417.47;2383272;28;45272;-83
2022/08/14 11:02:41;;;;;;;;;5.50;4.25;;;;;29.38;34.42;100432.69;2387269;28;46609;-83
2022/08/14 11:03:52;;;;;;;;;7.75;6.00;;;;;29.37;33.79;100433.72;2393227;28;44699;-85
2022/08/14 11:05:13;;;;;;;;;5.50;5.00;;;;;29.34;34.18;100431.34;2380430;28;48226;-85
2022/08/14 11:06:23;;;;;;;;;5.50;5.50;;;;;29.28;34.41;100429.41;2387707;28;44751;-83
2022/08/14 11:07:38;;;;;;;;;6.25;6.25;;;;;29.26;34.39;100428.75;2393912;28;45511;-81
2022/08/14 11:08:50;;;;;;;;;6.75;6.00;;;;;29.27;34.58;100430.41;2394834;28;45278;-85
2022/08/14 11:10:07;;;;;;;;;9.00;6.00;;;;;29.27;34.83;100438.53;2402790;28;46484;-84
2022/08/14 11:11:18;;;;;;;;;6.00;5.00;;;;;29.28;34.37;100440.22;2395207;28;46895;-84
2022/08/14 11:12:58;;;;;;;;;5.25;5.25;;;;;29.26;34.78;100437.69;2392876;28;45410;-84
2022/08/14 11:14:08;;;;;;;;;7.25;5.75;;;;;29.23;34.50;100431.81;2370559;28;44755;-81
2022/08/14 11:15:21;;;;;;;;;9.00;6.00;;;;;29.24;34.53;100437.03;2385660;28;48255;-84
2022/08/14 11:16:33;;;;;;;;;9.00;6.50;;;;;29.23;34.34;100439.94;2383501;28;44637;-84
2022/08/14 11:17:46;;;;;;;;;5.50;4.25;;;;;29.21;34.82;100440.94;2391554;28;47212;-83
2022/08/14 11:18:56;;;;;;;;;8.50;6.75;;;;;29.16;34.65;100437.13;2391810;28;45364;-84
2022/08/14 11:20:09;;;;;;;;;8.75;8.00;;;;;29.13;35.33;100440.19;2391599;28;45520;-83
2022/08/14 11:21:21;;;;;;;;;5.00;4.25;;;;;29.12;34.74;100431.22;2385138;28;45496;-83
2022/08/14 11:22:33;;;;;;;;;6.75;6.75;;;;;29.12;34.83;100433.06;2392749;28;45680;-83
2022/08/14 11:23:45;;;;;;;;;5.25;5.25;;;;;29.12;35.77;100444.75;2387299;28;45425;-83
2022/08/14 11:25:01;;;;;;;;;7.00;7.00;;;;;29.11;35.18;100439.53;2388573;28;46426;-83
2022/08/14 11:26:13;;;;;;;;;7.75;7.75;;;;;29.07;35.00;100436.28;2389909;28;44733;-83
2022/08/14 11:27:26;;;;;;;;;9.00;7.00;;;;;29.08;35.57;100443.44;2382546;28;48597;-83
2022/08/14 11:28:39;;;;;;;;;7.00;5.25;;;;;29.08;35.59;100451.53;2379096;28;45343;-83
2022/08/14 11:29:51;;;;;;;;;6.75;6.75;;;;;29.08;34.96;100440.72;2390567;28;45311;-82
2022/08/14 11:31:03;;;;;;;;;8.00;8.00;;;;;29.09;35.60;100436.97;2397318;28;45246;-82
2022/08/14 11:32:14;;;;;;;;;6.00;6.00;;;;;29.09;35.61;100443.22;2397846;28;45466;-82
2022/08/14 11:33:31;;;;;;;;;7.75;6.75;;;;;29.07;34.97;100439.00;2383792;28;45535;-82
2022/08/14 11:34:41;;;;;;;;;7.25;6.25;;;;;29.09;35.88;100435.13;2380767;28;48444;-82
2022/08/14 11:35:52;;;;;;;;;6.25;5.75;;;;;29.09;35.66;100443.22;2385983;28;45563;-82
2022/08/14 11:37:13;;;;;;;;;7.00;7.00;;;;;29.09;34.96;100450.50;2393713;28;46328;-82
2022/08/14 11:38:24;;;;;;;;;8.50;6.50;;;;;29.09;35.47;100445.09;2391687;28;45466;-82
2022/08/14 11:39:35;;;;;;;;;7.00;7.00;;;;;29.07;35.15;100447.97;2383304;28;47325;-82
2022/08/14 11:40:45;;;;;;;;;6.50;6.50;;;;;29.06;35.94;100443.59;2389352;28;45379;-83
2022/08/14 11:41:56;;;;;;;;;7.00;7.00;;;;;29.07;35.28;100457.94;2400304;28;45543;-82
2022/08/14 11:43:08;;;;;;;;;7.50;7.50;;;;;29.07;35.61;100449.81;2386400;28;44715;-81
2022/08/14 11:44:18;;;;;;;;;8.75;7.25;;;;;29.05;35.83;100450.00;2381827;28;45494;-80
2022/08/14 11:45:33;;;;;;;;;7.75;7.00;;;;;29.08;35.92;100449.69;2380133;28;45361;-81
2022/08/14 11:46:43;;;;;;;;;8.75;8.00;;;;;29.06;35.20;100454.41;2385857;28;45495;-81
2022/08/14 11:47:55;;;;;;;;;9.00;6.50;;;;;29.02;35.17;100454.91;2382445;28;45222;-80
2022/08/14 11:49:08;;;;;;;;;9.00;9.00;;;;;28.96;36.06;100454.66;2384955;28;46280;-80
2022/08/14 11:50:22;;;;;;;;;8.25;7.75;;;;;28.91;35.82;100446.22;2385680;28;45523;-80
2022/08/14 11:51:33;;;;;;;;;6.25;6.00;;;;;28.87;35.63;100453.00;2392788;28;45462;-81
2022/08/14 11:52:44;;;;;;;;;8.25;8.25;;;;;28.79;35.47;100451.22;2399169;28;44868;-84
2022/08/14 11:53:59;;;;;;;;;10.25;9.00;;;;;28.74;37.10;100467.13;2389815;28;45484;-87
2022/08/14 11:55:13;;;;;;;;;10.75;9.75;;;;;28.68;36.31;100455.16;2397262;28;45355;-88
2022/08/14 11:56:24;;;;;;;;;8.00;8.00;;;;;28.68;37.95;100457.88;2387312;28;45679;-86
2022/08/14 11:57:36;;;;;;;;;8.75;8.75;;;;;28.66;38.41;100457.19;2383210;28;45394;-87
2022/08/14 11:58:53;;;;;;;;;8.75;8.75;;;;;28.66;37.50;100465.31;2390723;28;45446;-86
2022/08/14 12:00:08;;;;;;;;;8.75;8.00;;;;;28.63;37.37;100473.78;2382532;28;45421;-87
2022/08/14 12:01:27;;;;;;;;;10.75;10.00;;;;;28.59;38.87;100467.03;2385712;28;46321;-84
2022/08/14 12:02:50;;;;;;;;;7.25;6.75;;;;;28.57;37.14;100471.78;2390834;28;47276;-81
2022/08/14 12:04:26;;;;;;;;;8.25;8.25;;;;;28.53;38.33;100469.44;2390826;28;45441;-81
2022/08/14 12:05:41;;;;;;;;;8.00;8.00;;;;;28.48;37.52;100471.81;2386794;28;45159;-83
2022/08/14 12:06:54;;;;;;;;;4.50;4.25;;;;;28.44;38.00;100475.91;2385218;28;45227;-83
2022/08/14 12:08:06;;;;;;;;;10.25;9.00;;;;;28.42;38.51;100472.50;2383107;28;45208;-84
2022/08/14 12:09:29;;;;;;;;;9.00;9.00;;;;;28.40;37.95;100469.97;2385538;28;47177;-83
2022/08/14 12:10:42;;;;;;;;;8.00;8.00;;;;;28.35;38.49;100466.94;2383502;28;45315;-83
2022/08/14 12:11:52;;;;;;;;;6.75;5.00;;;;;28.33;39.01;100468.13;2386541;28;45498;-84
2022/08/14 12:13:17;;;;;;;;;9.00;7.00;;;;;28.29;38.74;100467.66;2391473;28;45342;-83
2022/08/14 12:14:28;;;;;;;;;8.00;8.00;;;;;28.25;39.60;100464.44;2391954;28;46024;-83
2022/08/14 12:15:39;;;;;;;;;9.25;8.75;;;;;28.23;39.06;100471.03;2391642;28;44823;-83
2022/08/14 12:17:16;;;;;;;;;8.00;7.25;;;;;28.22;38.27;100469.38;2386182;28;46150;-83
2022/08/14 12:18:31;;;;;;;;;8.50;7.00;;;;;28.22;39.34;100485.59;2378208;28;45583;-83
2022/08/14 12:19:53;;;;;;;;;8.50;8.25;;;;;28.17;38.33;100483.41;2385915;28;46595;-83
2022/08/14 12:21:19;;;;;;;;;9.75;7.25;;;;;28.14;39.02;100479.19;2392713;28;45326;-83
2022/08/14 12:22:35;;;;;;;;;8.25;8.25;;;;;28.14;38.37;100481.06;2390610;28;45321;-83
2022/08/14 12:23:47;;;;;;;;;7.00;6.75;;;;;28.09;37.98;100486.97;2387116;28;45220;-84
2022/08/14 12:24:58;;;;;;;;;7.50;7.50;;;;;28.03;40.95;100495.75;2375899;28;47447;-83
2022/08/14 12:26:16;;;;;;;;;9.75;9.75;;;;;28.00;39.36;100491.56;2385936;28;44620;-83
2022/08/14 12:27:41;;;;;;;;;9.00;8.50;;;;;27.98;39.03;100493.56;2381219;28;47374;-84
2022/08/14 12:29:14;;;;;;;;;5.25;5.25;;;;;27.91;39.01;100487.19;2385411;28;45245;-83
2022/08/14 12:30:42;;;;;;;;;9.00;7.00;;;;;27.86;39.11;100496.66;2377930;28;46888;-83
2022/08/14 12:32:02;;;;;;;;;9.50;9.50;;;;;27.80;38.79;100494.66;2388115;28;45395;-83
2022/08/14 12:33:29;;;;;;;;;10.75;7.00;;;;;27.77;40.23;100503.06;2393090;28;46430;-83
2022/08/14 12:34:39;;;;;;;;;8.75;8.00;;;;;27.74;41.46;100506.09;2392880;28;45689;-83
2022/08/14 12:35:50;;;;;;;;;6.50;6.50;;;;;27.73;41.01;100512.50;2392523;28;46221;-83
2022/08/14 12:37:05;;;;;;;;;7.00;7.00;;;;;27.73;41.25;100509.81;2392304;28;44676;-83
2022/08/14 12:38:18;;;;;;;;;8.75;8.00;;;;;27.75;41.60;100522.13;2382627;28;47002;-83
2022/08/14 12:39:28;;;;;;;;;7.75;6.75;;;;;27.73;40.89;100523.31;2385763;28;45377;-83
2022/08/14 12:40:51;;;;;;;;;9.00;8.75;;;;;27.69;40.48;100522.78;2383323;28;48261;-83
2022/08/14 12:42:05;;;;;;;;;7.75;7.50;;;;;27.66;41.50;100527.69;2387807;28;44681;-83
2022/08/14 12:43:18;;;;;;;;;8.75;6.25;;;;;27.64;40.68;100526.00;2392314;28;46368;-83
2022/08/14 12:44:31;;;;;;;;;8.75;8.25;;;;;27.61;40.56;100520.94;2383115;28;45197;-83
2022/08/14 12:45:48;;;;;;;;;8.75;8.25;;;;;27.58;41.63;100515.06;2377014;28;48184;-83
2022/08/14 12:47:14;;;;;;;;;6.50;6.50;;;;;27.57;42.14;100519.59;2392882;28;45436;-83
2022/08/14 12:48:28;;;;;;;;;10.00;7.50;;;;;27.56;41.81;100512.50;2388902;28;46166;-83
2022/08/14 12:49:51;;;;;;;;;10.00;7.00;;;;;27.53;43.08;100502.88;2383023;28;45291;-83
2022/08/14 12:51:02;;;;;;;;;7.25;7.25;;;;;27.50;43.79;100500.53;2370109;28;47071;-83
2022/08/14 12:52:12;;;;;;;;;6.50;6.50;;;;;27.48;42.94;100493.63;2385810;28;45359;-83
2022/08/14 12:53:34;;;;;;;;;7.00;7.00;;;;;27.45;44.41;100499.34;2393011;28;46158;-83
2022/08/14 12:54:44;;;;;;;;;7.50;7.50;;;;;27.44;45.09;100498.50;2393202;28;44690;-83
2022/08/14 12:56:00;;;;;;;;;7.75;7.50;;;;;27.45;44.16;100494.81;2392981;28;46485;-83
2022/08/14 12:57:14;;;;;;;;;11.50;7.00;;;;;27.45;46.87;100491.25;2393222;28;45187;-83
2022/08/14 12:58:28;;;;;;;;;9.00;7.00;;;;;27.45;45.03;100493.97;2392166;28;46562;-83
2022/08/14 12:59:39;;;;;;;;;11.00;9.00;;;;;27.47;44.56;100497.34;2382425;28;45232;-83
2022/08/14 13:00:49;;;;;;;;;8.50;8.00;;;;;27.47;46.25;100487.38;2385448;28;45349;-83
2022/08/14 13:02:00;;;;;;;;;10.50;8.50;;;;;27.49;45.96;100488.06;2393199;28;45565;-83
2022/08/14 13:03:23;;;;;;;;;8.75;8.75;;;;;27.52;44.34;100489.56;2382161;28;46287;-83
2022/08/14 13:04:35;;;;;;;;;8.25;6.50;;;;;27.50;43.33;100484.34;2377741;28;44731;-83
2022/08/14 13:05:47;;;;;;;;;8.00;7.00;;;;;27.49;43.48;100496.16;2385591;28;45413;-83
2022/08/14 13:07:06;;;;;;;;;7.00;7.00;;;;;27.45;43.81;100481.31;2383076;28;45319;-83
2022/08/14 13:08:16;;;;;;;;;9.00;7.00;;;;;27.43;43.13;100483.34;2386456;28;47444;-83
2022/08/14 13:09:28;;;;;;;;;7.00;6.25;;;;;27.42;43.48;100490.59;2392168;28;44876;-83
2022/08/14 13:10:38;;;;;;;;;9.50;8.00;;;;;27.42;43.22;100487.03;2392978;28;45403;-83
2022/08/14 13:11:51;;;;;;;;;7.00;6.00;;;;;27.42;43.05;100479.81;2392208;28;45456;-83
2022/08/14 13:13:01;;;;;;;;;8.25;7.00;;;;;27.43;43.77;100480.66;2388377;28;45424;-83
2022/08/14 13:14:15;;;;;;;;;8.00;7.50;;;;;27.43;43.95;100480.66;2390973;28;45448;-83
2022/08/14 13:15:26;;;;;;;;;6.25;6.25;;;;;27.45;43.19;100481.31;2391454;28;45554;-83
2022/08/14 13:16:37;;;;;;;;;11.75;9.00;;;;;27.46;43.76;100474.06;2392449;28;45385;-83
2022/08/14 13:17:51;;;;;;;;;8.50;8.50;;;;;27.46;43.92;100490.25;2395552;28;47096;-83
2022/08/14 13:19:02;;;;;;;;;9.75;7.00;;;;;27.45;43.63;100477.78;2392510;28;45691;-83
2022/08/14 13:20:16;;;;;;;;;7.75;7.00;;;;;27.48;43.84;100482.84;2392301;28;46218;-83
2022/08/14 13:21:28;;;;;;;;;8.50;8.50;;;;;27.49;44.21;100484.50;2393152;28;45507;-83
2022/08/14 13:22:42;;;;;;;;;8.50;8.50;;;;;27.49;43.86;100479.09;2391993;28;47247;-83
2022/08/14 13:23:58;;;;;;;;;10.00;8.75;;;;;27.46;43.77;100480.28;2392637;28;45722;-83
2022/08/14 13:25:11;;;;;;;;;6.75;6.25;;;;;27.45;43.65;100483.16;2392455;28;46156;-83
2022/08/14 13:26:25;;;;;;;;;8.75;7.25;;;;;27.45;44.56;100480.47;2393252;28;45179;-82
2022/08/14 13:27:37;;;;;;;;;9.75;9.00;;;;;27.42;45.14;100482.50;2392654;28;46513;-83
2022/08/14 13:28:50;;;;;;;;;8.75;7.00;;;;;27.42;44.49;100479.81;2391986;28;44589;-83
2022/08/14 13:30:04;;;;;;;;;9.25;8.00;;;;;27.44;44.96;100476.91;2394010;28;46633;-83
2022/08/14 13:31:15;;;;;;;;;8.25;7.25;;;;;27.44;44.77;100476.91;2394685;28;45400;-83
2022/08/14 13:32:27;;;;;;;;;9.50;9.50;;;;;27.46;46.66;100474.06;2394431;28;45447;-83
2022/08/14 13:33:39;;;;;;;;;9.25;8.75;;;;;27.48;45.09;100477.44;2383790;28;45200;-83
2022/08/14 13:34:49;;;;;;;;;8.75;7.75;;;;;27.48;46.85;100477.44;2374419;28;46660;-83
2022/08/14 13:36:02;;;;;;;;;9.00;9.00;;;;;27.48;47.12;100467.50;2378694;28;45455;-83
2022/08/14 13:37:17;;;;;;;;;8.00;8.00;;;;;27.49;47.14;100469.16;2387404;28;46420;-83
2022/08/14 13:38:27;;;;;;;;;10.25;8.25;;;;;27.49;47.98;100471.00;2394798;28;45305;-83
2022/08/14 13:39:38;;;;;;;;;10.00;8.00;;;;;27.53;46.87;100475.09;2383982;28;47263;-83
2022/08/14 13:40:53;;;;;;;;;7.75;7.75;;;;;27.56;47.75;100473.91;2387491;28;45200;-83
2022/08/14 13:42:07;;;;;;;;;9.00;9.00;;;;;27.57;46.15;100475.56;2384210;28;47237;-83
2022/08/14 13:43:18;;;;;;;;;11.00;10.00;;;;;27.57;45.45;100471.03;2385592;28;44735;-83
2022/08/14 13:44:31;;;;;;;;;9.00;8.25;;;;;27.58;46.31;100475.41;2392386;28;45529;-83
2022/08/14 13:45:44;;;;;;;;;6.25;5.75;;;;;27.58;45.16;100470.03;2382554;28;45571;-82
2022/08/14 13:46:54;;;;;;;;;9.50;8.25;;;;;27.56;45.83;100472.03;2377121;28;47077;-83
2022/08/14 13:48:05;;;;;;;;;8.50;8.50;;;;;27.56;45.49;100469.31;2384424;28;45314;-83
2022/08/14 13:49:17;;;;;;;;;7.00;7.00;;;;;27.55;45.58;100464.09;2391227;28;46623;-83
2022/08/14 13:50:27;;;;;;;;;9.00;9.00;;;;;27.57;46.03;100459.38;2383333;28;45097;-83
2022/08/14 13:51:43;;;;;;;;;8.00;8.00;;;;;27.60;46.76;100464.44;2386912;28;45453;-83
2022/08/14 13:52:57;;;;;;;;;8.00;7.00;;;;;27.60;45.73;100459.88;2394668;28;45336;-83
2022/08/14 13:54:09;;;;;;;;;7.75;7.50;;;;;27.60;45.47;100459.03;2392502;28;46367;-83
2022/08/14 13:55:26;;;;;;;;;4.00;4.00;;;;;27.60;46.86;100459.88;2391251;28;45293;-83
2022/08/14 13:56:39;;;;;;;;;8.00;6.00;;;;;27.59;46.85;100454.66;2381101;28;47086;-83
2022/08/14 13:57:50;;;;;;;;;10.25;8.25;;;;;27.57;45.68;100456.69;2386316;28;46151;-83
2022/08/14 13:59:01;;;;;;;;;9.00;8.25;;;;;27.58;46.29;100456.53;2394990;28;45508;-82
2022/08/14 14:00:13;;;;;;;;;8.00;8.00;;;;;27.54;46.27;100455.16;2393502;28;45532;-83
2022/08/14 14:01:26;;;;;;;;;15.75;9.75;;;;;27.55;47.30;100450.59;2388566;28;47153;-83
2022/08/14 14:02:46;;;;;;;;;8.00;7.50;;;;;27.55;46.92;100453.31;2387465;28;45412;-83
2022/08/14 14:03:56;;;;;;;;;11.25;9.25;;;;;27.55;46.18;100445.22;2393329;28;46874;-82
2022/08/14 14:05:08;;;;;;;;;9.00;7.25;;;;;27.58;46.37;100439.47;2389511;28;45444;-83
2022/08/14 14:06:22;;;;;;;;;10.00;7.50;;;;;27.60;46.99;100448.25;2377793;28;45478;-82
2022/08/14 14:07:34;;;;;;;;;11.25;9.25;;;;;27.62;45.95;100436.25;2391596;28;45235;-82
2022/08/14 14:08:47;;;;;;;;;9.75;9.75;;;;;27.64;48.17;100436.94;2393613;28;46997;-82
2022/08/14 14:10:00;;;;;;;;;9.25;7.75;;;;;27.64;47.65;100434.22;2394296;28;45207;-83
2022/08/14 14:11:12;;;;;;;;;8.50;8.50;;;;;27.67;46.90;100437.59;2383382;28;47390;-83
2022/08/14 14:12:23;;;;;;;;;9.00;8.50;;;;;27.70;46.87;100437.25;2386282;28;45300;-83
2022/08/14 14:13:35;;;;;;;;;8.00;8.00;;;;;27.72;46.10;100433.38;2394196;28;46529;-83
2022/08/14 14:14:46;;;;;;;;;8.00;7.75;;;;;27.76;46.89;100433.88;2394394;28;44613;-83
2022/08/14 14:15:58;;;;;;;;;10.00;10.00;;;;;27.76;47.21;100431.16;2392668;28;46678;-83
2022/08/14 14:17:14;;;;;;;;;7.75;7.75;;;;;27.77;47.39;100429.31;2383005;28;45420;-83
2022/08/14 14:18:26;;;;;;;;;12.75;12.00;;;;;27.78;47.45;100423.72;2387784;28;45392;-83
2022/08/14 14:19:40;;;;;;;;;8.75;7.50;;;;;27.81;47.01;100431.53;2381599;28;45256;-83
2022/08/14 14:20:51;;;;;;;;;11.75;9.00;;;;;27.84;46.05;100425.78;2377602;28;48044;-83
2022/08/14 14:22:02;;;;;;;;;13.50;11.50;;;;;27.85;46.33;100435.53;2386913;28;45355;-83
2022/08/14 14:23:13;;;;;;;;;12.25;11.50;;;;;27.89;46.40;100435.22;2393089;28;46143;-82
2022/08/14 14:24:23;;;;;;;;;10.25;10.25;;;;;27.89;46.32;100436.06;2382779;28;45311;-82
2022/08/14 14:25:34;;;;;;;;;12.00;10.00;;;;;27.90;46.52;100440.47;2385744;28;45442;-82
2022/08/14 14:26:48;;;;;;;;;10.75;10.00;;;;;27.91;46.24;100435.88;2383874;28;45300;-82
2022/08/14 14:27:59;;;;;;;;;14.25;12.75;;;;;27.93;47.48;100425.78;2387143;28;45274;-82
2022/08/14 14:29:12;;;;;;;;;11.00;11.00;;;;;27.94;46.76;100425.59;2392802;28;45422;-82
2022/08/14 14:30:25;;;;;;;;;9.50;9.50;;;;;27.95;47.05;100421.03;2391566;28;45557;-81
2022/08/14 14:31:37;;;;;;;;;12.50;11.25;;;;;27.96;47.04;100420.84;2389256;28;45353;-82
2022/08/14 14:32:47;;;;;;;;;13.00;12.00;;;;;27.97;47.98;100425.25;2382906;28;46932;-84
2022/08/14 14:34:00;;;;;;;;;13.00;13.00;;;;;28.01;47.51;100425.72;2386649;28;45252;-82
2022/08/14 14:35:13;;;;;;;;;13.50;12.00;;;;;27.99;46.75;100425.06;2392277;28;45782;-82
2022/08/14 14:36:29;;;;;;;;;14.75;12.00;;;;;28.02;46.50;100427.41;2393053;28;45477;-82
2022/08/14 14:37:42;;;;;;;;;13.25;11.50;;;;;28.03;46.39;100420.13;2383423;28;47217;-82
2022/08/14 14:38:55;;;;;;;;;12.00;10.50;;;;;28.02;47.48;100419.31;2377389;28;45705;-82
2022/08/14 14:40:07;;;;;;;;;13.25;12.25;;;;;28.02;47.00;100424.72;2383559;28;46059;-82